sensor_id;sensor_type;location;lat;lon;timestamp;P1;durP1;ratioP1;P2;durP2;ratioP2
12359;SDS011;6244;51.460;7.090;2023-03-01T00:03:41;19.15;;;12.15;;
12359;SDS011;6244;51.460;7.090;2023-03-01T00:08:38;16.33;;;12.43;;
12359;SDS011;6244;51.460;7.090;2023-03-01T00:13:35;23.88;;;11.50;;
12359;SDS011;6244;51.460;7.090;2023-03-01T00:18:31;18.40;;;12.18;;
12359;SDS011;6244;51.460;7.090;2023-03-01T00:23:29;17.35;;;12.60;;
12359;SDS011;6244;51.460;7.090;2023-03-01T00:28:26;18.02;;;11.45;;
12359;SDS011;6244;51.460;7.090;2023-03-01T00:33:23;18.02;;;11.27;;
12359;SDS011;6244;51.460;7.090;2023-03-01T00:38:19;18.83;;;13.18;;
12359;SDS011;6244;51.460;7.090;2023-03-01T00:43:17;18.75;;;11.20;;
12359;SDS011;6244;51.460;7.090;2023-03-01T00:48:14;17.77;;;11.68;;
12359;SDS011;6244;51.460;7.090;2023-03-01T00:53:10;23.52;;;11.13;;
12359;SDS011;6244;51.460;7.090;2023-03-01T00:58:07;17.75;;;11.38;;
12359;SDS011;6244;51.460;7.090;2023-03-01T01:03:05;14.48;;;10.45;;
12359;SDS011;6244;51.460;7.090;2023-03-01T01:08:01;14.63;;;10.50;;
12359;SDS011;6244;51.460;7.090;2023-03-01T01:12:58;15.25;;;11.27;;
12359;SDS011;6244;51.460;7.090;2023-03-01T01:17:54;18.48;;;10.70;;
12359;SDS011;6244;51.460;7.090;2023-03-01T01:22:52;16.02;;;10.18;;
12359;SDS011;6244;51.460;7.090;2023-03-01T01:27:48;20.10;;;13.23;;
12359;SDS011;6244;51.460;7.090;2023-03-01T01:32:45;18.55;;;11.32;;
12359;SDS011;6244;51.460;7.090;2023-03-01T01:37:41;20.52;;;13.00;;
12359;SDS011;6244;51.460;7.090;2023-03-01T01:42:39;16.17;;;11.75;;
12359;SDS011;6244;51.460;7.090;2023-03-01T01:47:36;19.08;;;12.20;;
12359;SDS011;6244;51.460;7.090;2023-03-01T01:52:34;21.38;;;12.57;;
12359;SDS011;6244;51.460;7.090;2023-03-01T01:57:34;16.45;;;10.80;;
12359;SDS011;6244;51.460;7.090;2023-03-01T02:02:35;15.05;;;11.30;;
12359;SDS011;6244;51.460;7.090;2023-03-01T02:07:32;18.00;;;12.20;;
12359;SDS011;6244;51.460;7.090;2023-03-01T02:12:29;15.27;;;10.73;;
12359;SDS011;6244;51.460;7.090;2023-03-01T02:17:27;17.30;;;11.38;;
12359;SDS011;6244;51.460;7.090;2023-03-01T02:22:26;16.80;;;11.07;;
12359;SDS011;6244;51.460;7.090;2023-03-01T02:27:27;16.25;;;10.80;;
12359;SDS011;6244;51.460;7.090;2023-03-01T02:32:30;16.70;;;10.10;;
12359;SDS011;6244;51.460;7.090;2023-03-01T02:37:27;17.30;;;11.07;;
12359;SDS011;6244;51.460;7.090;2023-03-01T02:42:26;18.02;;;10.80;;
12359;SDS011;6244;51.460;7.090;2023-03-01T02:47:24;15.65;;;10.55;;
12359;SDS011;6244;51.460;7.090;2023-03-01T02:52:29;18.80;;;10.82;;
12359;SDS011;6244;51.460;7.090;2023-03-01T02:57:34;16.25;;;10.52;;
12359;SDS011;6244;51.460;7.090;2023-03-01T03:02:32;14.63;;;11.23;;
12359;SDS011;6244;51.460;7.090;2023-03-01T03:07:37;16.38;;;10.93;;
12359;SDS011;6244;51.460;7.090;2023-03-01T03:12:36;13.02;;;10.15;;
12359;SDS011;6244;51.460;7.090;2023-03-01T03:17:32;17.25;;;11.48;;
12359;SDS011;6244;51.460;7.090;2023-03-01T03:22:29;16.60;;;11.15;;
12359;SDS011;6244;51.460;7.090;2023-03-01T03:27:27;17.45;;;10.85;;
12359;SDS011;6244;51.460;7.090;2023-03-01T03:32:23;17.85;;;11.07;;
12359;SDS011;6244;51.460;7.090;2023-03-01T03:37:20;17.60;;;9.85;;
12359;SDS011;6244;51.460;7.090;2023-03-01T03:42:36;14.70;;;10.15;;
12359;SDS011;6244;51.460;7.090;2023-03-01T03:47:32;13.75;;;9.15;;
12359;SDS011;6244;51.460;7.090;2023-03-01T03:52:29;19.58;;;10.65;;
12359;SDS011;6244;51.460;7.090;2023-03-01T03:57:25;14.85;;;10.80;;
12359;SDS011;6244;51.460;7.090;2023-03-01T04:02:23;15.88;;;10.40;;
12359;SDS011;6244;51.460;7.090;2023-03-01T04:07:20;13.98;;;9.95;;
12359;SDS011;6244;51.460;7.090;2023-03-01T04:12:16;15.07;;;10.27;;
12359;SDS011;6244;51.460;7.090;2023-03-01T04:17:18;14.10;;;9.57;;
12359;SDS011;6244;51.460;7.090;2023-03-01T04:22:15;15.35;;;9.93;;
12359;SDS011;6244;51.460;7.090;2023-03-01T04:27:12;13.70;;;10.05;;
12359;SDS011;6244;51.460;7.090;2023-03-01T04:32:08;15.88;;;10.77;;
12359;SDS011;6244;51.460;7.090;2023-03-01T04:37:05;16.27;;;10.57;;
12359;SDS011;6244;51.460;7.090;2023-03-01T04:42:03;13.27;;;10.05;;
12359;SDS011;6244;51.460;7.090;2023-03-01T04:47:00;16.70;;;10.70;;
12359;SDS011;6244;51.460;7.090;2023-03-01T04:51:56;15.38;;;10.40;;
12359;SDS011;6244;51.460;7.090;2023-03-01T04:56:57;17.58;;;11.32;;
12359;SDS011;6244;51.460;7.090;2023-03-01T05:01:55;18.85;;;11.45;;
12359;SDS011;6244;51.460;7.090;2023-03-01T05:06:52;19.25;;;11.73;;
12359;SDS011;6244;51.460;7.090;2023-03-01T05:11:49;20.85;;;11.13;;
12359;SDS011;6244;51.460;7.090;2023-03-01T05:16:46;17.33;;;10.93;;
12359;SDS011;6244;51.460;7.090;2023-03-01T05:21:44;24.05;;;10.88;;
12359;SDS011;6244;51.460;7.090;2023-03-01T05:27:00;18.85;;;12.13;;
12359;SDS011;6244;51.460;7.090;2023-03-01T05:31:58;19.35;;;11.38;;
12359;SDS011;6244;51.460;7.090;2023-03-01T05:36:57;16.40;;;11.20;;
12359;SDS011;6244;51.460;7.090;2023-03-01T05:41:54;16.33;;;11.35;;
12359;SDS011;6244;51.460;7.090;2023-03-01T05:46:52;19.13;;;11.52;;
12359;SDS011;6244;51.460;7.090;2023-03-01T05:51:50;16.92;;;11.25;;
12359;SDS011;6244;51.460;7.090;2023-03-01T05:56:49;18.02;;;12.30;;
12359;SDS011;6244;51.460;7.090;2023-03-01T06:01:45;18.52;;;12.10;;
12359;SDS011;6244;51.460;7.090;2023-03-01T06:06:42;18.92;;;11.35;;
12359;SDS011;6244;51.460;7.090;2023-03-01T06:11:38;22.15;;;12.77;;
12359;SDS011;6244;51.460;7.090;2023-03-01T06:16:36;21.65;;;13.13;;
12359;SDS011;6244;51.460;7.090;2023-03-01T06:21:33;18.20;;;12.10;;
12359;SDS011;6244;51.460;7.090;2023-03-01T06:26:29;23.15;;;12.20;;
12359;SDS011;6244;51.460;7.090;2023-03-01T06:31:26;16.98;;;11.30;;
12359;SDS011;6244;51.460;7.090;2023-03-01T06:36:23;21.10;;;11.68;;
12359;SDS011;6244;51.460;7.090;2023-03-01T06:41:20;17.55;;;11.05;;
12359;SDS011;6244;51.460;7.090;2023-03-01T06:46:16;18.52;;;11.10;;
12359;SDS011;6244;51.460;7.090;2023-03-01T06:51:13;16.45;;;10.57;;
12359;SDS011;6244;51.460;7.090;2023-03-01T06:56:11;14.88;;;11.20;;
12359;SDS011;6244;51.460;7.090;2023-03-01T07:01:07;17.48;;;11.27;;
12359;SDS011;6244;51.460;7.090;2023-03-01T07:06:04;18.42;;;10.98;;
12359;SDS011;6244;51.460;7.090;2023-03-01T07:11:01;15.45;;;10.43;;
12359;SDS011;6244;51.460;7.090;2023-03-01T07:16:00;19.58;;;10.63;;
12359;SDS011;6244;51.460;7.090;2023-03-01T07:20:56;16.30;;;11.70;;
12359;SDS011;6244;51.460;7.090;2023-03-01T07:25:53;20.20;;;13.40;;
12359;SDS011;6244;51.460;7.090;2023-03-01T07:30:50;19.67;;;12.68;;
12359;SDS011;6244;51.460;7.090;2023-03-01T07:35:48;17.10;;;11.75;;
12359;SDS011;6244;51.460;7.090;2023-03-01T07:40:44;16.65;;;12.07;;
12359;SDS011;6244;51.460;7.090;2023-03-01T07:45:41;20.90;;;12.45;;
12359;SDS011;6244;51.460;7.090;2023-03-01T07:50:37;17.25;;;12.00;;
12359;SDS011;6244;51.460;7.090;2023-03-01T07:55:35;18.30;;;10.82;;
12359;SDS011;6244;51.460;7.090;2023-03-01T08:00:32;21.77;;;11.68;;
12359;SDS011;6244;51.460;7.090;2023-03-01T08:05:28;19.83;;;13.07;;
12359;SDS011;6244;51.460;7.090;2023-03-01T08:10:25;17.75;;;12.05;;
12359;SDS011;6244;51.460;7.090;2023-03-01T08:15:23;17.92;;;10.25;;
12359;SDS011;6244;51.460;7.090;2023-03-01T08:20:19;18.27;;;11.48;;
12359;SDS011;6244;51.460;7.090;2023-03-01T08:25:16;16.25;;;9.57;;
12359;SDS011;6244;51.460;7.090;2023-03-01T08:30:12;14.25;;;9.57;;
12359;SDS011;6244;51.460;7.090;2023-03-01T08:35:11;13.98;;;9.75;;
12359;SDS011;6244;51.460;7.090;2023-03-01T08:40:07;14.25;;;9.90;;
12359;SDS011;6244;51.460;7.090;2023-03-01T08:45:06;14.10;;;8.80;;
12359;SDS011;6244;51.460;7.090;2023-03-01T08:50:04;16.05;;;8.70;;
12359;SDS011;6244;51.460;7.090;2023-03-01T08:55:02;13.98;;;8.50;;
12359;SDS011;6244;51.460;7.090;2023-03-01T08:59:59;14.07;;;8.80;;
12359;SDS011;6244;51.460;7.090;2023-03-01T09:04:56;16.50;;;8.70;;
12359;SDS011;6244;51.460;7.090;2023-03-01T09:09:52;13.18;;;9.00;;
12359;SDS011;6244;51.460;7.090;2023-03-01T09:14:50;12.10;;;8.35;;
12359;SDS011;6244;51.460;7.090;2023-03-01T09:19:47;12.90;;;9.00;;
12359;SDS011;6244;51.460;7.090;2023-03-01T09:24:43;13.52;;;8.52;;
12359;SDS011;6244;51.460;7.090;2023-03-01T09:29:40;12.45;;;8.10;;
12359;SDS011;6244;51.460;7.090;2023-03-01T09:34:38;11.90;;;8.05;;
12359;SDS011;6244;51.460;7.090;2023-03-01T09:39:48;12.40;;;7.78;;
12359;SDS011;6244;51.460;7.090;2023-03-01T09:44:46;12.45;;;8.32;;
12359;SDS011;6244;51.460;7.090;2023-03-01T09:49:50;11.77;;;7.88;;
12359;SDS011;6244;51.460;7.090;2023-03-01T09:54:54;10.18;;;7.72;;
12359;SDS011;6244;51.460;7.090;2023-03-01T09:59:56;12.82;;;7.80;;
12359;SDS011;6244;51.460;7.090;2023-03-01T10:05:13;10.07;;;6.93;;
12359;SDS011;6244;51.460;7.090;2023-03-01T10:10:24;10.75;;;7.43;;
12359;SDS011;6244;51.460;7.090;2023-03-01T10:15:25;13.88;;;7.50;;
12359;SDS011;6244;51.460;7.090;2023-03-01T10:20:33;9.77;;;6.72;;
12359;SDS011;6244;51.460;7.090;2023-03-01T10:25:42;11.38;;;6.97;;
12359;SDS011;6244;51.460;7.090;2023-03-01T10:30:44;9.32;;;6.55;;
12359;SDS011;6244;51.460;7.090;2023-03-01T10:35:42;10.48;;;6.68;;
12359;SDS011;6244;51.460;7.090;2023-03-01T10:40:49;8.82;;;6.57;;
12359;SDS011;6244;51.460;7.090;2023-03-01T10:45:48;8.95;;;6.60;;
12359;SDS011;6244;51.460;7.090;2023-03-01T10:50:47;11.60;;;6.80;;
12359;SDS011;6244;51.460;7.090;2023-03-01T10:55:45;9.77;;;7.07;;
12359;SDS011;6244;51.460;7.090;2023-03-01T11:00:45;11.35;;;6.25;;
12359;SDS011;6244;51.460;7.090;2023-03-01T11:05:56;10.52;;;6.88;;
12359;SDS011;6244;51.460;7.090;2023-03-01T11:11:03;9.45;;;6.80;;
12359;SDS011;6244;51.460;7.090;2023-03-01T11:16:02;9.77;;;6.32;;
12359;SDS011;6244;51.460;7.090;2023-03-01T11:21:03;8.40;;;6.45;;
12359;SDS011;6244;51.460;7.090;2023-03-01T11:26:01;9.43;;;6.50;;
12359;SDS011;6244;51.460;7.090;2023-03-01T11:31:02;10.02;;;6.82;;
12359;SDS011;6244;51.460;7.090;2023-03-01T11:36:06;10.15;;;6.90;;
12359;SDS011;6244;51.460;7.090;2023-03-01T11:41:12;10.63;;;6.95;;
12359;SDS011;6244;51.460;7.090;2023-03-01T11:46:23;9.75;;;6.95;;
12359;SDS011;6244;51.460;7.090;2023-03-01T11:51:34;10.27;;;6.78;;
12359;SDS011;6244;51.460;7.090;2023-03-01T11:56:38;8.90;;;6.03;;
12359;SDS011;6244;51.460;7.090;2023-03-01T12:01:46;10.85;;;6.55;;
12359;SDS011;6244;51.460;7.090;2023-03-01T12:06:57;11.30;;;6.93;;
12359;SDS011;6244;51.460;7.090;2023-03-01T12:12:00;10.07;;;6.93;;
12359;SDS011;6244;51.460;7.090;2023-03-01T12:17:16;10.57;;;7.07;;
12359;SDS011;6244;51.460;7.090;2023-03-01T12:22:31;12.15;;;7.10;;
12359;SDS011;6244;51.460;7.090;2023-03-01T12:27:36;11.45;;;7.07;;
12359;SDS011;6244;51.460;7.090;2023-03-01T12:32:47;10.32;;;6.80;;
12359;SDS011;6244;51.460;7.090;2023-03-01T12:38:00;12.45;;;7.25;;
12359;SDS011;6244;51.460;7.090;2023-03-01T12:43:17;11.55;;;7.07;;
12359;SDS011;6244;51.460;7.090;2023-03-01T12:48:25;10.77;;;7.00;;
12359;SDS011;6244;51.460;7.090;2023-03-01T12:53:34;11.85;;;7.50;;
12359;SDS011;6244;51.460;7.090;2023-03-01T12:58:34;9.05;;;7.18;;
12359;SDS011;6244;51.460;7.090;2023-03-01T13:03:38;11.70;;;7.88;;
12359;SDS011;6244;51.460;7.090;2023-03-01T13:08:52;11.33;;;7.80;;
12359;SDS011;6244;51.460;7.090;2023-03-01T13:19:25;11.65;;;7.13;;
12359;SDS011;6244;51.460;7.090;2023-03-01T13:24:26;12.00;;;7.80;;
12359;SDS011;6244;51.460;7.090;2023-03-01T13:29:25;12.82;;;7.38;;
12359;SDS011;6244;51.460;7.090;2023-03-01T13:34:42;12.60;;;7.72;;
12359;SDS011;6244;51.460;7.090;2023-03-01T13:39:41;11.60;;;7.68;;
12359;SDS011;6244;51.460;7.090;2023-03-01T13:44:38;11.63;;;7.13;;
12359;SDS011;6244;51.460;7.090;2023-03-01T13:49:43;12.80;;;7.25;;
12359;SDS011;6244;51.460;7.090;2023-03-01T13:54:46;12.38;;;7.40;;
12359;SDS011;6244;51.460;7.090;2023-03-01T13:59:46;12.77;;;7.60;;
12359;SDS011;6244;51.460;7.090;2023-03-01T14:04:43;10.07;;;7.43;;
12359;SDS011;6244;51.460;7.090;2023-03-01T14:09:54;15.18;;;8.10;;
12359;SDS011;6244;51.460;7.090;2023-03-01T14:14:54;14.82;;;7.40;;
12359;SDS011;6244;51.460;7.090;2023-03-01T14:19:55;11.43;;;7.90;;
12359;SDS011;6244;51.460;7.090;2023-03-01T14:24:56;11.73;;;7.50;;
12359;SDS011;6244;51.460;7.090;2023-03-01T14:29:55;10.85;;;8.05;;
12359;SDS011;6244;51.460;7.090;2023-03-01T14:34:53;12.95;;;7.57;;
12359;SDS011;6244;51.460;7.090;2023-03-01T14:39:51;12.15;;;7.40;;
12359;SDS011;6244;51.460;7.090;2023-03-01T14:44:50;14.18;;;7.68;;
12359;SDS011;6244;51.460;7.090;2023-03-01T14:49:48;14.77;;;7.82;;
12359;SDS011;6244;51.460;7.090;2023-03-01T14:54:50;12.32;;;7.43;;
12359;SDS011;6244;51.460;7.090;2023-03-01T14:59:49;10.82;;;7.55;;
12359;SDS011;6244;51.460;7.090;2023-03-01T15:04:49;10.77;;;7.47;;
12359;SDS011;6244;51.460;7.090;2023-03-01T15:09:48;12.07;;;7.43;;
12359;SDS011;6244;51.460;7.090;2023-03-01T15:14:44;11.48;;;7.63;;
12359;SDS011;6244;51.460;7.090;2023-03-01T15:19:46;11.68;;;7.65;;
12359;SDS011;6244;51.460;7.090;2023-03-01T15:24:46;12.95;;;7.65;;
12359;SDS011;6244;51.460;7.090;2023-03-01T15:29:46;12.93;;;7.90;;
12359;SDS011;6244;51.460;7.090;2023-03-01T15:34:46;13.05;;;7.85;;
12359;SDS011;6244;51.460;7.090;2023-03-01T15:39:43;12.00;;;7.68;;
12359;SDS011;6244;51.460;7.090;2023-03-01T15:44:49;11.77;;;7.95;;
12359;SDS011;6244;51.460;7.090;2023-03-01T15:49:47;11.20;;;7.03;;
12359;SDS011;6244;51.460;7.090;2023-03-01T15:54:44;11.82;;;7.57;;
12359;SDS011;6244;51.460;7.090;2023-03-01T15:59:41;13.40;;;8.00;;
12359;SDS011;6244;51.460;7.090;2023-03-01T16:04:39;11.77;;;8.02;;
12359;SDS011;6244;51.460;7.090;2023-03-01T16:09:37;11.77;;;7.43;;
12359;SDS011;6244;51.460;7.090;2023-03-01T16:14:33;14.43;;;7.78;;
12359;SDS011;6244;51.460;7.090;2023-03-01T16:19:30;12.85;;;7.28;;
12359;SDS011;6244;51.460;7.090;2023-03-01T16:24:27;11.07;;;7.13;;
12359;SDS011;6244;51.460;7.090;2023-03-01T16:29:25;10.30;;;6.70;;
12359;SDS011;6244;51.460;7.090;2023-03-01T16:34:22;10.50;;;6.82;;
12359;SDS011;6244;51.460;7.090;2023-03-01T16:39:20;11.85;;;6.85;;
12359;SDS011;6244;51.460;7.090;2023-03-01T16:44:17;9.40;;;5.75;;
12359;SDS011;6244;51.460;7.090;2023-03-01T16:49:15;11.82;;;6.50;;
12359;SDS011;6244;51.460;7.090;2023-03-01T16:54:11;8.93;;;6.32;;
12359;SDS011;6244;51.460;7.090;2023-03-01T16:59:08;9.85;;;5.95;;
12359;SDS011;6244;51.460;7.090;2023-03-01T17:04:09;9.25;;;5.95;;
12359;SDS011;6244;51.460;7.090;2023-03-01T17:09:08;11.35;;;6.55;;
12359;SDS011;6244;51.460;7.090;2023-03-01T17:14:06;10.88;;;5.97;;
12359;SDS011;6244;51.460;7.090;2023-03-01T17:19:03;8.85;;;5.78;;
12359;SDS011;6244;51.460;7.090;2023-03-01T17:23:59;17.73;;;6.82;;
12359;SDS011;6244;51.460;7.090;2023-03-01T17:29:00;12.55;;;8.07;;
12359;SDS011;6244;51.460;7.090;2023-03-01T17:33:57;11.93;;;7.20;;
12359;SDS011;6244;51.460;7.090;2023-03-01T17:38:55;16.52;;;8.05;;
12359;SDS011;6244;51.460;7.090;2023-03-01T17:43:53;12.82;;;8.48;;
12359;SDS011;6244;51.460;7.090;2023-03-01T17:48:51;12.23;;;7.97;;
12359;SDS011;6244;51.460;7.090;2023-03-01T17:53:48;13.48;;;8.10;;
12359;SDS011;6244;51.460;7.090;2023-03-01T17:58:44;12.18;;;8.50;;
12359;SDS011;6244;51.460;7.090;2023-03-01T18:03:41;12.80;;;8.30;;
12359;SDS011;6244;51.460;7.090;2023-03-01T18:08:41;12.93;;;8.10;;
12359;SDS011;6244;51.460;7.090;2023-03-01T18:13:39;13.55;;;8.18;;
12359;SDS011;6244;51.460;7.090;2023-03-01T18:18:36;14.02;;;8.05;;
12359;SDS011;6244;51.460;7.090;2023-03-01T18:23:33;16.70;;;10.20;;
12359;SDS011;6244;51.460;7.090;2023-03-01T18:28:32;16.00;;;8.98;;
12359;SDS011;6244;51.460;7.090;2023-03-01T18:33:29;13.90;;;8.48;;
12359;SDS011;6244;51.460;7.090;2023-03-01T18:38:26;15.15;;;8.98;;
12359;SDS011;6244;51.460;7.090;2023-03-01T18:43:24;14.32;;;8.68;;
12359;SDS011;6244;51.460;7.090;2023-03-01T18:48:24;12.48;;;8.20;;
12359;SDS011;6244;51.460;7.090;2023-03-01T18:53:21;15.23;;;9.13;;
12359;SDS011;6244;51.460;7.090;2023-03-01T18:58:17;14.07;;;9.57;;
12359;SDS011;6244;51.460;7.090;2023-03-01T19:03:14;13.32;;;9.35;;
12359;SDS011;6244;51.460;7.090;2023-03-01T19:08:12;13.57;;;9.18;;
12359;SDS011;6244;51.460;7.090;2023-03-01T19:13:08;16.60;;;10.68;;
12359;SDS011;6244;51.460;7.090;2023-03-01T19:18:05;14.05;;;9.13;;
12359;SDS011;6244;51.460;7.090;2023-03-01T19:23:03;18.13;;;9.98;;
12359;SDS011;6244;51.460;7.090;2023-03-01T19:28:01;15.70;;;9.55;;
12359;SDS011;6244;51.460;7.090;2023-03-01T19:32:58;13.63;;;8.75;;
12359;SDS011;6244;51.460;7.090;2023-03-01T19:37:55;14.18;;;8.68;;
12359;SDS011;6244;51.460;7.090;2023-03-01T19:42:51;10.00;;;7.15;;
12359;SDS011;6244;51.460;7.090;2023-03-01T19:47:49;12.75;;;8.00;;
12359;SDS011;6244;51.460;7.090;2023-03-01T19:52:46;14.60;;;8.55;;
12359;SDS011;6244;51.460;7.090;2023-03-01T19:57:42;12.68;;;7.45;;
12359;SDS011;6244;51.460;7.090;2023-03-01T20:02:39;13.07;;;7.82;;
12359;SDS011;6244;51.460;7.090;2023-03-01T20:07:37;11.80;;;7.00;;
12359;SDS011;6244;51.460;7.090;2023-03-01T20:12:34;12.43;;;7.43;;
12359;SDS011;6244;51.460;7.090;2023-03-01T20:17:31;13.10;;;8.35;;
12359;SDS011;6244;51.460;7.090;2023-03-01T20:22:28;11.02;;;6.93;;
12359;SDS011;6244;51.460;7.090;2023-03-01T20:27:26;11.98;;;7.30;;
12359;SDS011;6244;51.460;7.090;2023-03-01T20:32:22;13.32;;;7.88;;
12359;SDS011;6244;51.460;7.090;2023-03-01T20:37:19;12.63;;;7.07;;
12359;SDS011;6244;51.460;7.090;2023-03-01T20:42:16;11.13;;;7.65;;
12359;SDS011;6244;51.460;7.090;2023-03-01T20:47:14;11.32;;;7.35;;
12359;SDS011;6244;51.460;7.090;2023-03-01T20:52:10;12.82;;;7.28;;
12359;SDS011;6244;51.460;7.090;2023-03-01T20:57:07;13.20;;;7.97;;
12359;SDS011;6244;51.460;7.090;2023-03-01T21:02:04;11.57;;;7.70;;
12359;SDS011;6244;51.460;7.090;2023-03-01T21:07:01;11.60;;;8.13;;
12359;SDS011;6244;51.460;7.090;2023-03-01T21:11:58;12.02;;;6.97;;
12359;SDS011;6244;51.460;7.090;2023-03-01T21:16:54;13.80;;;7.80;;
12359;SDS011;6244;51.460;7.090;2023-03-01T21:21:51;15.63;;;7.72;;
12359;SDS011;6244;51.460;7.090;2023-03-01T21:26:49;11.20;;;7.28;;
12359;SDS011;6244;51.460;7.090;2023-03-01T21:31:45;12.50;;;7.75;;
12359;SDS011;6244;51.460;7.090;2023-03-01T21:36:42;13.10;;;7.28;;
12359;SDS011;6244;51.460;7.090;2023-03-01T21:41:38;9.77;;;6.72;;
12359;SDS011;6244;51.460;7.090;2023-03-01T21:46:36;11.35;;;7.50;;
12359;SDS011;6244;51.460;7.090;2023-03-01T21:51:34;11.25;;;7.18;;
12359;SDS011;6244;51.460;7.090;2023-03-01T21:56:31;13.00;;;7.60;;
12359;SDS011;6244;51.460;7.090;2023-03-01T22:01:32;14.10;;;6.93;;
12359;SDS011;6244;51.460;7.090;2023-03-01T22:06:31;9.18;;;6.43;;
12359;SDS011;6244;51.460;7.090;2023-03-01T22:11:33;12.20;;;7.03;;
12359;SDS011;6244;51.460;7.090;2023-03-01T22:16:31;11.95;;;7.35;;
12359;SDS011;6244;51.460;7.090;2023-03-01T22:21:31;10.85;;;6.60;;
12359;SDS011;6244;51.460;7.090;2023-03-01T22:26:29;11.77;;;6.93;;
12359;SDS011;6244;51.460;7.090;2023-03-01T22:31:28;10.60;;;6.38;;
12359;SDS011;6244;51.460;7.090;2023-03-01T22:36:25;11.52;;;7.40;;
12359;SDS011;6244;51.460;7.090;2023-03-01T22:41:24;11.38;;;7.35;;
12359;SDS011;6244;51.460;7.090;2023-03-01T22:46:23;10.05;;;6.57;;
12359;SDS011;6244;51.460;7.090;2023-03-01T22:51:25;11.02;;;6.60;;
12359;SDS011;6244;51.460;7.090;2023-03-01T22:56:26;11.18;;;6.68;;
12359;SDS011;6244;51.460;7.090;2023-03-01T23:01:30;11.32;;;6.90;;
12359;SDS011;6244;51.460;7.090;2023-03-01T23:06:27;12.13;;;6.97;;
12359;SDS011;6244;51.460;7.090;2023-03-01T23:11:26;9.73;;;6.63;;
12359;SDS011;6244;51.460;7.090;2023-03-01T23:16:28;10.38;;;6.43;;
12359;SDS011;6244;51.460;7.090;2023-03-01T23:39:49;10.55;;;7.03;;
12359;SDS011;6244;51.460;7.090;2023-03-01T23:44:46;14.52;;;8.48;;
12359;SDS011;6244;51.460;7.090;2023-03-01T23:49:42;10.00;;;6.80;;
12359;SDS011;6244;51.460;7.090;2023-03-01T23:54:38;10.30;;;6.60;;
12359;SDS011;6244;51.460;7.090;2023-03-01T23:59:36;9.30;;;6.10;;
